Anning, China
Current Conditions -  °F | °C
As of 7:00 AM on Tuesday 21 Oct 2014 (Local Time) from ZPPP Reporting Station
Scattered Clouds Scattered Clouds  
Wind Chill: 50°   Ceiling: Unl
Heat Index: 50°   Visibility: 5mi
Dew Point: 50°   Wind: 4mph
Humidity: 100%   Direction: 360°N
Pressure: 30.36"   Gusts: NA
Location:  24.9°N, 102.49°E
Report Text: ZPPP 202300Z 36002MPS 8000 FEW023 SCT033 10/10 Q1028 NOSIG
Loading
Personal Weather Stations






























Interactive Weather Map
Tropical Storm Tracking
New forecast layout! Learn more

10-Day Weather Forecast

Advertisements
Track Severe Weather on mobile